createdAt,value
2022-11-16T00:01:27.733Z,97240.47
2022-11-16T00:03:56.411Z,97235.19
2022-11-16T00:06:24.072Z,97243.88
2022-11-16T00:09:13.290Z,97236.34
2022-11-16T00:11:40.349Z,97235.03
2022-11-16T00:14:07.755Z,97233.41
2022-11-16T00:16:34.854Z,97234.75
2022-11-16T00:19:03.560Z,97222.38
2022-11-16T00:21:31.026Z,97219.66
2022-11-16T00:23:58.285Z,97222.06
2022-11-16T00:26:25.355Z,97216.81
2022-11-16T00:28:53.692Z,97214.69
2022-11-16T00:31:20.474Z,97209.63
2022-11-16T00:33:47.584Z,97209.84
2022-11-16T00:36:15.053Z,97200.53
2022-11-16T00:38:42.326Z,97203.34
2022-11-16T00:41:09.899Z,97200.47
2022-11-16T00:43:37.256Z,97193.56
2022-11-16T00:46:04.198Z,97197.75
2022-11-16T00:48:31.632Z,97186.44
2022-11-16T00:50:58.651Z,97190.94
2022-11-16T00:53:25.290Z,97190.00
2022-11-16T00:55:51.997Z,97188.47
2022-11-16T00:58:18.556Z,97182.13
2022-11-16T01:00:45.250Z,97183.22
2022-11-16T01:03:12.022Z,97177.00
2022-11-16T01:05:38.833Z,97179.47
2022-11-16T01:08:06.549Z,97177.00
2022-11-16T01:10:33.537Z,97180.41
2022-11-16T01:13:00.123Z,97177.78
2022-11-16T01:15:27.977Z,97175.31
2022-11-16T01:17:56.335Z,97169.88
2022-11-16T01:20:27.987Z,97170.56
2022-11-16T01:22:55.524Z,97171.44
2022-11-16T01:25:22.198Z,97164.31
2022-11-16T01:27:48.824Z,97156.72
2022-11-16T01:30:16.608Z,97146.97
2022-11-16T01:32:43.307Z,97130.88
2022-11-16T01:35:14.824Z,97137.91
2022-11-16T01:37:41.369Z,97133.78
2022-11-16T01:40:08.589Z,97129.38
2022-11-16T01:42:35.178Z,97127.78
2022-11-16T01:45:07.824Z,97129.69
2022-11-16T01:47:34.813Z,97132.09
2022-11-16T01:50:13.287Z,97133.63
2022-11-16T01:52:46.291Z,97124.69
2022-11-16T01:55:13.386Z,97127.94
2022-11-16T01:57:42.978Z,97118.94
2022-11-16T02:00:11.779Z,97121.88
2022-11-16T02:02:38.726Z,97123.75
2022-11-16T02:05:06.819Z,97125.44
2022-11-16T02:08:25.306Z,97122.69
2022-11-16T02:11:25.460Z,97122.97
2022-11-16T02:14:04.377Z,97116.16
2022-11-16T02:16:34.127Z,97116.59
2022-11-16T02:19:18.583Z,97114.31
2022-11-16T02:22:05.452Z,97103.38
2022-11-16T02:25:03.088Z,97105.94
2022-11-16T02:27:48.582Z,97109.81
2022-11-16T02:30:16.227Z,97104.75
2022-11-16T02:32:52.633Z,97104.13
2022-11-16T02:35:41.067Z,97107.69
2022-11-16T02:38:13.594Z,97105.00
2022-11-16T02:40:44.294Z,97112.94
2022-11-16T02:43:22.003Z,97100.59
2022-11-16T02:45:51.581Z,97117.22
2022-11-16T02:48:24.065Z,97108.09
2022-11-16T02:50:53.478Z,97105.84
2022-11-16T02:53:22.145Z,97098.81
2022-11-16T02:55:49.109Z,97101.66
2022-11-16T02:58:21.301Z,97100.03
2022-11-16T03:01:09.015Z,97098.84
2022-11-16T03:03:49.316Z,97095.72
2022-11-16T03:06:24.929Z,97099.28
2022-11-16T03:09:04.759Z,97098.53
2022-11-16T03:11:53.755Z,97096.50
2022-11-16T03:14:24.116Z,97101.75
2022-11-16T03:16:56.113Z,97094.50
2022-11-16T03:19:34.036Z,97107.41
2022-11-16T03:22:41.232Z,97109.19
2022-11-16T03:25:09.844Z,97112.00
2022-11-16T03:27:41.719Z,97113.38
2022-11-16T03:30:12.738Z,97112.97
2022-11-16T03:32:56.129Z,97105.50
2022-11-16T03:36:04.042Z,97108.63
2022-11-16T03:38:33.911Z,97113.13
2022-11-16T03:41:04.547Z,97120.34
2022-11-16T03:43:33.144Z,97118.38
2022-11-16T03:45:59.876Z,97125.41
2022-11-16T03:48:32.397Z,97121.75
2022-11-16T03:50:59.242Z,97119.13
2022-11-16T03:53:25.945Z,97116.31
2022-11-16T03:55:52.486Z,97116.66
2022-11-16T03:58:19.337Z,97111.34
2022-11-16T04:00:46.201Z,97112.19
2022-11-16T04:03:13.015Z,97115.78
2022-11-16T04:05:58.265Z,97117.56
2022-11-16T04:08:43.388Z,97107.56
2022-11-16T04:11:40.781Z,97108.81
2022-11-16T04:14:33.546Z,97110.59
2022-11-16T04:17:18.448Z,97109.91
2022-11-16T04:20:03.523Z,97102.88
2022-11-16T04:22:54.638Z,97112.53
2022-11-16T04:25:27.292Z,97114.53
2022-11-16T04:28:13.312Z,97112.59
2022-11-16T04:31:08.089Z,97113.50
2022-11-16T04:33:53.455Z,97117.72
2022-11-16T04:36:38.551Z,97117.72
2022-11-16T04:39:05.727Z,97115.94
2022-11-16T04:41:51.803Z,97114.44
2022-11-16T04:44:18.863Z,97121.13
2022-11-16T04:47:04.683Z,97123.44
2022-11-16T04:49:31.485Z,97118.63
2022-11-16T04:51:58.239Z,97125.59
2022-11-16T04:54:24.891Z,97117.34
2022-11-16T04:56:51.451Z,97114.41
2022-11-16T04:59:18.355Z,97116.53
2022-11-16T05:02:03.540Z,97115.81
2022-11-16T05:04:30.235Z,97125.47
2022-11-16T05:06:56.968Z,97122.09
2022-11-16T05:09:23.678Z,97114.13
2022-11-16T05:11:50.386Z,97118.16
2022-11-16T05:14:16.952Z,97120.59
2022-11-16T05:16:43.565Z,97118.09
2022-11-16T05:19:28.681Z,97116.53
2022-11-16T05:21:55.476Z,97121.25
2022-11-16T05:24:34.336Z,97128.56
2022-11-16T05:27:03.144Z,97126.84
2022-11-16T05:29:30.360Z,97120.19
2022-11-16T05:31:57.416Z,97126.50
2022-11-16T05:34:24.025Z,97137.16
2022-11-16T05:36:50.834Z,97135.44
2022-11-16T05:39:17.583Z,97126.13
2022-11-16T05:41:44.294Z,97128.16
2022-11-16T05:44:11.154Z,97132.91
2022-11-16T05:46:37.871Z,97134.19
2022-11-16T05:49:04.634Z,97138.16
2022-11-16T05:51:31.219Z,97136.31
2022-11-16T05:53:57.921Z,97128.06
2022-11-16T05:56:24.443Z,97133.44
2022-11-16T05:58:51.152Z,97129.53
2022-11-16T06:01:17.908Z,97136.88
2022-11-16T06:03:44.517Z,97126.13
2022-11-16T06:06:11.171Z,97126.47
2022-11-16T06:08:38.110Z,97129.16
2022-11-16T06:11:07.060Z,97124.94
2022-11-16T06:13:33.930Z,97124.41
2022-11-16T06:16:01.484Z,97125.50
2022-11-16T06:18:28.147Z,97122.69
2022-11-16T06:20:55.135Z,97124.94
2022-11-16T06:23:22.289Z,97120.16
2022-11-16T06:25:54.458Z,97117.53
2022-11-16T06:28:21.717Z,97116.97
2022-11-16T06:30:48.981Z,97122.56
2022-11-16T06:33:16.377Z,97115.63
2022-11-16T06:35:43.172Z,97115.38
2022-11-16T06:38:09.969Z,97117.28
2022-11-16T06:40:38.337Z,97122.84
2022-11-16T06:43:05.025Z,97117.59
2022-11-16T06:45:31.667Z,97119.47
2022-11-16T06:47:58.264Z,97109.66
2022-11-16T06:50:25.210Z,97122.72
2022-11-16T06:52:51.711Z,97114.75
2022-11-16T06:55:18.438Z,97121.03
2022-11-16T06:57:46.473Z,97116.66
2022-11-16T07:00:13.814Z,97120.78
2022-11-16T07:02:40.754Z,97120.09
2022-11-16T07:05:07.913Z,97115.09
2022-11-16T07:07:34.618Z,97113.25
2022-11-16T07:10:01.437Z,97120.09
2022-11-16T07:12:28.151Z,97113.25
2022-11-16T07:14:54.946Z,97114.84
2022-11-16T07:17:21.495Z,97110.53
2022-11-16T07:19:48.140Z,97109.69
2022-11-16T07:22:14.703Z,97117.31
2022-11-16T07:24:41.394Z,97112.47
2022-11-16T07:27:09.009Z,97108.00
2022-11-16T07:29:35.795Z,97100.53
2022-11-16T07:32:02.476Z,97102.50
2022-11-16T07:34:29.209Z,97096.78
2022-11-16T07:36:55.772Z,97100.31
2022-11-16T07:39:28.024Z,97099.44
2022-11-16T07:41:54.593Z,97089.97
2022-11-16T07:44:21.385Z,97103.00
2022-11-16T07:46:48.762Z,97114.94
2022-11-16T07:49:17.449Z,97106.81
2022-11-16T07:51:44.670Z,97108.34
2022-11-16T07:54:12.910Z,97108.06
2022-11-16T07:56:39.685Z,97106.81
2022-11-16T07:59:06.634Z,97101.47
2022-11-16T08:01:33.442Z,97106.47
2022-11-16T08:04:03.799Z,97106.25
2022-11-16T08:06:32.411Z,97106.97
2022-11-16T08:08:59.662Z,97108.72
2022-11-16T08:11:26.774Z,97110.50
2022-11-16T08:13:53.678Z,97108.72
2022-11-16T08:16:22.672Z,97123.63
2022-11-16T08:18:49.885Z,97123.06
2022-11-16T08:21:18.246Z,97125.72
2022-11-16T08:23:45.499Z,97122.31
2022-11-16T08:26:15.523Z,97125.16
2022-11-16T08:28:43.928Z,97125.84
2022-11-16T08:31:13.487Z,97128.56
2022-11-16T08:33:40.457Z,97134.66
2022-11-16T08:36:13.808Z,97132.69
2022-11-16T08:38:40.903Z,97136.22
2022-11-16T08:41:07.760Z,97140.50
2022-11-16T08:43:35.986Z,97140.56
2022-11-16T08:46:03.360Z,97142.97
2022-11-16T08:48:30.671Z,97141.34
2022-11-16T08:51:17.940Z,97142.28
2022-11-16T08:53:45.696Z,97152.09
2022-11-16T08:56:15.357Z,97145.59
2022-11-16T08:58:43.875Z,97151.06
2022-11-16T09:01:14.030Z,97145.69
2022-11-16T09:03:41.915Z,97146.66
2022-11-16T09:06:10.031Z,97148.44
2022-11-16T09:08:38.336Z,97139.66
2022-11-16T09:11:06.088Z,97139.75
2022-11-16T09:13:32.846Z,97146.84
2022-11-16T09:16:00.482Z,97146.59
2022-11-16T09:18:28.354Z,97143.19
2022-11-16T09:20:55.824Z,97149.53
2022-11-16T09:23:25.602Z,97149.41
2022-11-16T09:25:53.437Z,97154.47
2022-11-16T09:28:21.711Z,97151.00
2022-11-16T09:30:50.592Z,97157.94
2022-11-16T09:33:17.631Z,97155.06
2022-11-16T09:35:44.571Z,97151.59
2022-11-16T09:38:13.621Z,97154.41
2022-11-16T09:40:46.403Z,97155.41
2022-11-16T09:43:28.012Z,97147.31
2022-11-16T09:46:04.391Z,97156.03
2022-11-16T09:48:33.967Z,97148.75
2022-11-16T09:51:08.327Z,97154.75
2022-11-16T09:53:44.132Z,97147.72
2022-11-16T09:56:20.664Z,97151.75
2022-11-16T09:58:57.600Z,97152.34
2022-11-16T10:01:33.089Z,97147.91
2022-11-16T10:04:15.175Z,97153.84
2022-11-16T10:07:04.237Z,97143.22
2022-11-16T10:09:30.949Z,97153.44
2022-11-16T10:12:09.904Z,97155.63
2022-11-16T10:15:01.633Z,97156.31
2022-11-16T10:17:28.267Z,97158.00
2022-11-16T10:19:56.863Z,97154.19
2022-11-16T10:22:50.667Z,97154.84
2022-11-16T10:25:22.590Z,97155.63
2022-11-16T10:27:56.675Z,97146.22
2022-11-16T10:30:23.836Z,97147.38
2022-11-16T10:33:11.530Z,97141.53
2022-11-16T10:35:43.455Z,97144.09
2022-11-16T10:38:19.279Z,97146.72
2022-11-16T10:41:14.448Z,97139.88
2022-11-16T10:43:43.221Z,97143.59
2022-11-16T10:46:20.154Z,97136.28
2022-11-16T10:49:04.502Z,97134.50
2022-11-16T10:51:31.132Z,97133.66
2022-11-16T10:53:57.685Z,97130.81
2022-11-16T10:56:37.360Z,97125.38
2022-11-16T10:59:08.539Z,97120.97
2022-11-16T11:01:43.592Z,97120.72
2022-11-16T11:04:34.708Z,97120.53
2022-11-16T11:07:29.240Z,97121.47
2022-11-16T11:09:55.958Z,97122.13
2022-11-16T11:12:39.795Z,97126.38
2022-11-16T11:15:12.571Z,97123.66
2022-11-16T11:17:45.101Z,97113.84
2022-11-16T11:20:17.988Z,97115.72
2022-11-16T11:23:00.860Z,97115.56
2022-11-16T11:25:34.284Z,97122.31
2022-11-16T11:28:16.734Z,97122.59
2022-11-16T11:30:54.169Z,97128.06
2022-11-16T11:33:23.998Z,97130.03
2022-11-16T11:36:05.254Z,97127.09
2022-11-16T11:38:32.940Z,97122.66
2022-11-16T11:41:05.422Z,97121.22
2022-11-16T11:43:34.555Z,97119.75
2022-11-16T11:46:15.941Z,97126.72
2022-11-16T11:49:03.778Z,97128.50
2022-11-16T11:51:37.013Z,97122.31
2022-11-16T11:54:07.725Z,97135.69
2022-11-16T11:56:35.142Z,97126.00
2022-11-16T11:59:03.792Z,97121.47
2022-11-16T12:01:52.307Z,97120.75
2022-11-16T12:04:46.124Z,97117.06
2022-11-16T12:07:21.613Z,97119.69
2022-11-16T12:10:26.969Z,97114.19
2022-11-16T12:13:29.049Z,97113.91
2022-11-16T12:16:01.789Z,97116.81
2022-11-16T12:19:09.940Z,97109.63
2022-11-16T12:21:55.062Z,97116.59
2022-11-16T12:24:31.013Z,97118.94
2022-11-16T12:27:27.233Z,97114.28
2022-11-16T12:30:03.917Z,97111.56
2022-11-16T12:32:46.208Z,97109.59
2022-11-16T12:35:37.596Z,97107.41
2022-11-16T12:38:07.681Z,97099.53
2022-11-16T12:40:43.279Z,97098.59
2022-11-16T12:43:09.874Z,97100.78
2022-11-16T12:45:58.927Z,97101.16
2022-11-16T12:48:44.405Z,97091.00
2022-11-16T12:51:42.009Z,97097.72
2022-11-16T12:54:21.129Z,97084.09
2022-11-16T12:56:55.775Z,97090.97
2022-11-16T12:59:38.081Z,97088.16
2022-11-16T13:02:08.584Z,97090.69
2022-11-16T13:04:41.293Z,97089.31
2022-11-16T13:07:21.636Z,97088.78
2022-11-16T13:09:51.553Z,97084.94
2022-11-16T13:12:23.607Z,97083.63
2022-11-16T13:14:53.728Z,97087.53
2022-11-16T13:17:34.301Z,97083.34
2022-11-16T13:20:27.982Z,97090.28
2022-11-16T13:23:03.577Z,97089.81
2022-11-16T13:25:42.410Z,97083.88
2022-11-16T13:28:46.595Z,97085.81
2022-11-16T13:31:39.846Z,97077.06
2022-11-16T13:34:14.561Z,97078.38
2022-11-16T13:36:45.671Z,97073.44
2022-11-16T13:39:22.305Z,97081.28
2022-11-16T13:41:52.059Z,97071.19
2022-11-16T13:44:20.124Z,97072.00
2022-11-16T13:46:56.617Z,97068.81
2022-11-16T13:49:26.736Z,97067.75
2022-11-16T13:52:03.404Z,97058.19
2022-11-16T13:54:51.383Z,97069.94
2022-11-16T13:57:24.854Z,97067.25
2022-11-16T14:00:00.705Z,97070.59
2022-11-16T14:02:38.967Z,97064.41
2022-11-16T14:05:47.891Z,97069.78
2022-11-16T14:08:20.488Z,97069.19
2022-11-16T14:10:52.939Z,97066.84
2022-11-16T14:13:39.906Z,97068.81
2022-11-16T14:16:15.699Z,97062.94
2022-11-16T14:18:43.361Z,97059.47
2022-11-16T14:21:21.972Z,97066.28
2022-11-16T14:24:06.507Z,97060.31
2022-11-16T14:26:48.076Z,97067.91
2022-11-16T14:29:20.839Z,97055.56
2022-11-16T14:31:53.441Z,97061.88
2022-11-16T14:34:46.992Z,97053.91
2022-11-16T14:37:36.146Z,97064.94
2022-11-16T14:40:19.783Z,97061.59
2022-11-16T14:45:53.648Z,97069.34
2022-11-16T14:48:22.199Z,97068.00
2022-11-16T14:51:06.391Z,97062.88
2022-11-16T14:53:36.880Z,97054.50
2022-11-16T14:56:12.606Z,97052.59
2022-11-16T14:58:40.399Z,97052.91
2022-11-16T15:01:14.254Z,97062.06
2022-11-16T15:04:22.544Z,97070.28
2022-11-16T15:06:53.369Z,97058.34
2022-11-16T15:09:22.407Z,97061.19
2022-11-16T15:12:09.614Z,97054.94
2022-11-16T15:14:47.084Z,97055.69
2022-11-16T15:17:17.211Z,97055.09
2022-11-16T15:19:44.407Z,97057.72
2022-11-16T15:22:18.298Z,97064.22
2022-11-16T15:24:44.974Z,97073.94
2022-11-16T15:27:31.657Z,97064.31
2022-11-16T15:30:01.941Z,97070.38
2022-11-16T15:32:28.756Z,97070.38
2022-11-16T15:34:55.499Z,97073.94
2022-11-16T15:37:30.122Z,97067.16
2022-11-16T15:40:02.762Z,97067.22
2022-11-16T15:42:29.843Z,97068.53
2022-11-16T15:44:58.430Z,97078.22
2022-11-16T15:47:25.991Z,97075.81
2022-11-16T15:49:53.263Z,97081.00
2022-11-16T15:52:45.974Z,97082.38
2022-11-16T15:55:36.292Z,97085.63
2022-11-16T15:58:07.568Z,97093.72
2022-11-16T16:00:36.851Z,97089.31
2022-11-16T16:03:15.548Z,97086.63
2022-11-16T16:05:42.223Z,97086.75
2022-11-16T16:08:37.531Z,97084.78
2022-11-16T16:11:05.981Z,97087.53
2022-11-16T16:13:43.889Z,97090.16
2022-11-16T16:16:23.526Z,97092.72
2022-11-16T16:18:51.728Z,97092.13
2022-11-16T16:21:18.352Z,97083.47
2022-11-16T16:23:51.048Z,97088.72
2022-11-16T16:26:18.224Z,97082.63
2022-11-16T16:28:45.347Z,97085.31
2022-11-16T16:31:12.708Z,97087.94
2022-11-16T16:33:39.379Z,97096.44
2022-11-16T16:36:06.452Z,97096.44
2022-11-16T16:38:33.231Z,97096.69
2022-11-16T16:41:02.745Z,97095.75
2022-11-16T16:43:30.377Z,97098.44
2022-11-16T16:46:00.669Z,97092.41
2022-11-16T16:48:27.404Z,97096.69
2022-11-16T16:50:54.073Z,97084.72
2022-11-16T16:53:20.735Z,97086.72
2022-11-16T16:55:49.004Z,97090.34
2022-11-16T16:58:15.805Z,97081.69
2022-11-16T17:00:43.021Z,97092.41
2022-11-16T17:03:09.864Z,97085.41
2022-11-16T17:05:37.312Z,97083.31
2022-11-16T17:08:04.023Z,97085.25
2022-11-16T17:10:30.687Z,97082.06
2022-11-16T17:12:57.840Z,97080.47
2022-11-16T17:15:25.290Z,97083.06
2022-11-16T17:17:52.124Z,97076.28
2022-11-16T17:20:18.743Z,97079.94
2022-11-16T17:22:46.097Z,97079.03
2022-11-16T17:25:12.791Z,97082.31
2022-11-16T17:27:39.460Z,97086.69
2022-11-16T17:30:06.631Z,97090.97
2022-11-16T17:32:33.535Z,97077.81
2022-11-16T17:35:00.120Z,97076.09
2022-11-16T17:37:26.947Z,97070.91
2022-11-16T17:39:53.639Z,97077.84
2022-11-16T17:42:20.352Z,97083.84
2022-11-16T17:44:46.990Z,97076.91
2022-11-16T17:47:13.622Z,97082.06
2022-11-16T17:49:41.043Z,97076.78
2022-11-16T17:52:07.555Z,97066.59
2022-11-16T17:54:34.214Z,97063.56
2022-11-16T17:57:00.764Z,97072.97
2022-11-16T17:59:29.794Z,97067.09
2022-11-16T18:01:58.194Z,97066.56
2022-11-16T18:04:24.929Z,97069.53
2022-11-16T18:06:51.880Z,97062.69
2022-11-16T18:09:19.053Z,97065.22
2022-11-16T18:11:45.798Z,97064.00
2022-11-16T18:14:12.453Z,97069.53
2022-11-16T18:16:42.537Z,97077.59
2022-11-16T18:19:12.020Z,97069.69
2022-11-16T18:21:42.237Z,97074.88
2022-11-16T18:24:10.429Z,97072.47
2022-11-16T18:26:37.215Z,97074.63
2022-11-16T18:29:04.189Z,97068.66
2022-11-16T18:31:33.158Z,97069.59
2022-11-16T18:34:02.272Z,97073.13
2022-11-16T18:36:29.097Z,97069.59
2022-11-16T18:38:55.699Z,97064.56
2022-11-16T18:41:28.180Z,97063.13
2022-11-16T18:43:57.124Z,97059.72
2022-11-16T18:46:31.677Z,97068.00
2022-11-16T18:48:59.251Z,97063.75
2022-11-16T18:51:27.446Z,97066.41
2022-11-16T18:53:54.695Z,97051.72
2022-11-16T18:56:21.657Z,97052.75
2022-11-16T18:58:51.462Z,97053.75
2022-11-16T19:01:20.231Z,97058.50
2022-11-16T19:03:47.010Z,97058.94
2022-11-16T19:06:15.855Z,97054.94
2022-11-16T19:08:42.807Z,97043.09
2022-11-16T19:11:12.048Z,97038.91
2022-11-16T19:13:40.135Z,97026.22
2022-11-16T19:16:07.638Z,97022.44
2022-11-16T19:18:36.005Z,97024.50
2022-11-16T19:21:07.268Z,97024.69
2022-11-16T19:23:45.357Z,97035.22
2022-11-16T19:26:14.410Z,97049.31
2022-11-16T19:28:43.518Z,97047.91
2022-11-16T19:31:12.694Z,97047.19
2022-11-16T19:33:40.048Z,97042.38
2022-11-16T19:36:10.576Z,97057.41
2022-11-16T19:38:37.641Z,97048.97
2022-11-16T19:41:04.787Z,97050.06
2022-11-16T19:43:31.963Z,97042.28
2022-11-16T19:46:07.050Z,97046.88
2022-11-16T19:48:34.483Z,97044.84
2022-11-16T19:51:24.810Z,97053.06
2022-11-16T19:53:51.848Z,97049.13
2022-11-16T19:56:20.750Z,97045.25
2022-11-16T19:58:48.193Z,97054.22
2022-11-16T20:01:23.853Z,97053.38
2022-11-16T20:03:50.687Z,97054.00
2022-11-16T20:06:22.938Z,97057.53
2022-11-16T20:08:52.220Z,97058.66
2022-11-16T20:11:20.864Z,97047.59
2022-11-16T20:13:52.465Z,97050.97
2022-11-16T20:16:22.610Z,97043.03
2022-11-16T20:18:50.311Z,97046.03
2022-11-16T20:21:23.730Z,97048.09
2022-11-16T20:24:01.528Z,97049.34
2022-11-16T20:26:33.864Z,97049.50
2022-11-16T20:29:00.556Z,97059.28
2022-11-16T20:31:30.420Z,97066.22
2022-11-16T20:33:59.326Z,97058.38
2022-11-16T20:36:28.380Z,97067.97
2022-11-16T20:38:56.140Z,97066.28
2022-11-16T20:41:25.151Z,97067.97
2022-11-16T20:43:53.608Z,97069.50
2022-11-16T20:46:22.293Z,97068.41
2022-11-16T20:48:49.368Z,97068.28
2022-11-16T20:51:18.415Z,97061.25
2022-11-16T20:53:46.184Z,97074.22
2022-11-16T20:56:13.538Z,97064.53
2022-11-16T20:58:40.842Z,97072.13
2022-11-16T21:01:14.476Z,97060.88
2022-11-16T21:03:42.590Z,97065.09
2022-11-16T21:06:09.242Z,97061.38
2022-11-16T21:08:36.880Z,97059.78
2022-11-16T21:11:10.229Z,97064.59
2022-11-16T21:13:55.721Z,97060.22
2022-11-16T21:16:22.460Z,97075.66
2022-11-16T21:18:48.999Z,97074.47
2022-11-16T21:21:15.766Z,97072.63
2022-11-16T21:23:45.078Z,97069.97
2022-11-16T21:26:13.613Z,97065.59
2022-11-16T21:28:41.391Z,97057.66
2022-11-16T21:31:11.738Z,97046.09
2022-11-16T21:33:38.503Z,97039.75
2022-11-16T21:36:14.071Z,97039.28
2022-11-16T21:38:40.908Z,97039.47
2022-11-16T21:41:08.691Z,97042.78
2022-11-16T21:43:37.379Z,97047.16
2022-11-16T21:46:06.716Z,97039.94
2022-11-16T21:48:34.602Z,97037.34
2022-11-16T21:51:09.789Z,97027.69
2022-11-16T21:53:36.953Z,97027.59
2022-11-16T21:56:05.287Z,97024.72
2022-11-16T21:58:31.841Z,97028.78
2022-11-16T22:01:00.255Z,97023.19
2022-11-16T22:03:31.842Z,97021.50
2022-11-16T22:06:19.336Z,97007.31
2022-11-16T22:08:47.314Z,97004.75
2022-11-16T22:11:15.457Z,97010.78
2022-11-16T22:13:42.960Z,97006.31
2022-11-16T22:16:11.858Z,97014.06
2022-11-16T22:18:38.795Z,97022.88
2022-11-16T22:21:06.124Z,97021.00
2022-11-16T22:23:33.629Z,97013.84
2022-11-16T22:26:05.144Z,97025.38
2022-11-16T22:28:32.829Z,97024.41
2022-11-16T22:31:03.913Z,97008.72
2022-11-16T22:33:30.784Z,97012.25
2022-11-16T22:35:57.825Z,97002.44
2022-11-16T22:38:24.503Z,97013.94
2022-11-16T22:40:52.481Z,97011.94
2022-11-16T22:43:20.815Z,97011.28
2022-11-16T22:45:47.687Z,97006.97
2022-11-16T22:48:14.987Z,97001.00
2022-11-16T22:50:42.383Z,97004.41
2022-11-16T22:53:10.240Z,97009.13
2022-11-16T22:55:38.224Z,97001.25
2022-11-16T22:58:05.723Z,96995.47
2022-11-16T23:00:37.497Z,96991.84
2022-11-16T23:03:07.523Z,96991.75
2022-11-16T23:05:34.221Z,96995.84
2022-11-16T23:08:00.829Z,96989.84
2022-11-16T23:10:27.550Z,96984.94
2022-11-16T23:13:12.565Z,96972.34
2022-11-16T23:15:51.098Z,96965.63
2022-11-16T23:18:19.576Z,96969.16
2022-11-16T23:21:05.125Z,96958.63
2022-11-16T23:23:50.040Z,96956.25
2022-11-16T23:26:42.126Z,96960.41
2022-11-16T23:29:11.036Z,96960.50
2022-11-16T23:31:38.044Z,96946.75
2022-11-16T23:34:05.374Z,96953.47
2022-11-16T23:36:32.319Z,96956.16
2022-11-16T23:38:58.942Z,96961.38
2022-11-16T23:41:44.598Z,96956.94
2022-11-16T23:44:11.190Z,96965.53
2022-11-16T23:46:37.918Z,96953.28
2022-11-16T23:49:04.499Z,96948.84
2022-11-16T23:51:31.040Z,96946.16
2022-11-16T23:53:58.102Z,96942.50
2022-11-16T23:56:24.842Z,96934.81
2022-11-16T23:58:56.713Z,96932.06
